createdAt,value
2022-08-17T00:02:01.492Z,7.23
2022-08-17T00:04:36.430Z,9.20
2022-08-17T00:07:02.961Z,13.00
2022-08-17T00:09:29.568Z,13.70
2022-08-17T00:12:40.723Z,15.30
2022-08-17T00:14:43.515Z,9.15
2022-08-17T00:17:10.180Z,11.35
2022-08-17T00:19:37.177Z,17.02
2022-08-17T00:22:34.027Z,15.15
2022-08-17T00:24:53.512Z,13.45
2022-08-17T00:27:20.057Z,9.95
2022-08-17T00:29:46.801Z,10.40
2022-08-17T00:33:22.894Z,14.18
2022-08-17T00:35:04.670Z,10.93
2022-08-17T00:37:31.220Z,7.97
2022-08-17T00:39:57.824Z,8.90
2022-08-17T00:42:28.833Z,12.07
2022-08-17T00:44:57.504Z,11.10
2022-08-17T00:47:24.072Z,11.70
2022-08-17T00:49:50.757Z,9.95
2022-08-17T00:52:21.657Z,11.02
2022-08-17T00:54:49.758Z,12.50
2022-08-17T00:57:26.806Z,17.02
2022-08-17T01:00:03.009Z,15.93
2022-08-17T01:02:41.190Z,14.07
2022-08-17T01:05:14.039Z,11.55
2022-08-17T01:07:42.236Z,14.23
2022-08-17T01:10:59.176Z,13.07
2022-08-17T01:12:57.747Z,12.35
2022-08-17T01:15:24.366Z,16.92
2022-08-17T01:17:51.011Z,11.65
2022-08-17T01:20:17.649Z,18.77
2022-08-17T01:22:44.382Z,18.48
2022-08-17T01:25:11.544Z,12.68
2022-08-17T01:27:38.585Z,14.48
2022-08-17T01:30:57.242Z,17.42
2022-08-17T01:32:55.701Z,14.90
2022-08-17T01:35:22.282Z,14.57
2022-08-17T01:37:48.834Z,13.88
2022-08-17T01:40:23.130Z,13.10
2022-08-17T01:43:08.988Z,16.67
2022-08-17T01:45:40.156Z,14.02
2022-08-17T01:48:06.703Z,9.75
2022-08-17T01:50:37.883Z,12.00
2022-08-17T01:53:11.344Z,12.77
2022-08-17T01:55:44.386Z,15.73
2022-08-17T01:58:11.436Z,17.00
2022-08-17T02:00:59.539Z,13.02
2022-08-17T02:03:26.859Z,13.93
2022-08-17T02:05:53.714Z,13.50
2022-08-17T02:08:21.516Z,14.63
2022-08-17T02:11:11.429Z,14.98
2022-08-17T02:13:39.004Z,18.48
2022-08-17T02:16:06.009Z,12.73
2022-08-17T02:18:32.607Z,13.38
2022-08-17T02:20:59.455Z,14.85
2022-08-17T02:23:29.175Z,15.40
2022-08-17T02:25:58.129Z,14.40
2022-08-17T02:28:24.715Z,21.10
2022-08-17T02:31:02.028Z,14.30
2022-08-17T02:33:41.883Z,12.32
2022-08-17T02:36:11.399Z,13.70
2022-08-17T02:38:38.584Z,16.05
2022-08-17T02:41:05.694Z,14.18
2022-08-17T02:43:32.737Z,13.65
2022-08-17T02:45:59.944Z,16.60
2022-08-17T02:48:30.472Z,12.82
2022-08-17T02:50:58.741Z,18.23
2022-08-17T02:53:25.680Z,17.48
2022-08-17T02:55:52.851Z,13.98
2022-08-17T02:58:34.714Z,17.65
2022-08-17T03:01:03.206Z,13.43
2022-08-17T03:03:29.773Z,16.63
2022-08-17T03:05:56.356Z,16.02
2022-08-17T03:08:23.338Z,14.15
2022-08-17T03:10:50.503Z,13.10
2022-08-17T03:13:17.271Z,17.75
2022-08-17T03:15:45.952Z,16.20
2022-08-17T03:18:25.050Z,17.48
2022-08-17T03:20:58.822Z,20.83
2022-08-17T03:23:26.367Z,17.55
2022-08-17T03:25:54.886Z,17.83
2022-08-17T03:28:23.351Z,13.98
2022-08-17T03:30:51.123Z,18.58
2022-08-17T03:33:18.338Z,17.35
2022-08-17T03:35:45.270Z,12.98
2022-08-17T03:38:12.552Z,17.70
2022-08-17T03:40:58.771Z,17.95
2022-08-17T03:43:29.227Z,18.65
2022-08-17T03:46:33.890Z,16.65
2022-08-17T03:49:21.145Z,14.85
2022-08-17T03:52:06.477Z,22.27
2022-08-17T03:54:51.437Z,18.13
2022-08-17T03:57:19.076Z,18.73
2022-08-17T03:59:46.115Z,17.90
2022-08-17T04:02:25.093Z,16.23
2022-08-17T04:04:52.302Z,19.67
2022-08-17T04:07:20.793Z,17.17
2022-08-17T04:09:47.666Z,18.92
2022-08-17T04:12:18.986Z,23.25
2022-08-17T04:17:19.652Z,16.67
2022-08-17T04:19:46.862Z,15.80
2022-08-17T04:22:31.794Z,16.13
2022-08-17T04:25:19.550Z,14.32
2022-08-17T04:27:46.152Z,20.40
2022-08-17T04:30:13.214Z,24.63
2022-08-17T04:33:06.089Z,21.30
2022-08-17T04:35:39.615Z,18.02
2022-08-17T04:38:07.694Z,19.85
2022-08-17T04:40:53.165Z,18.98
2022-08-17T04:43:22.399Z,18.50
2022-08-17T04:45:56.202Z,17.63
2022-08-17T04:48:36.168Z,24.10
2022-08-17T04:51:23.197Z,19.02
2022-08-17T04:53:54.037Z,20.27
2022-08-17T04:56:22.238Z,17.75
2022-08-17T04:58:50.843Z,16.88
2022-08-17T05:01:23.229Z,21.90
2022-08-17T05:03:54.073Z,15.27
2022-08-17T05:06:20.844Z,15.88
2022-08-17T05:08:47.534Z,11.25
2022-08-17T05:11:14.622Z,14.48
2022-08-17T05:13:41.223Z,10.43
2022-08-17T05:16:09.011Z,14.27
2022-08-17T05:18:37.112Z,11.05
2022-08-17T05:21:03.790Z,12.63
2022-08-17T05:23:41.580Z,10.30
2022-08-17T05:26:17.937Z,11.65
2022-08-17T05:28:57.020Z,9.15
2022-08-17T05:31:27.062Z,9.23
2022-08-17T05:33:53.645Z,6.55
2022-08-17T05:36:37.870Z,7.10
2022-08-17T05:39:06.822Z,6.00
2022-08-17T05:41:33.366Z,7.90
2022-08-17T05:43:59.968Z,7.82
2022-08-17T05:46:36.244Z,16.85
2022-08-17T05:49:05.006Z,10.15
2022-08-17T05:51:49.494Z,16.60
2022-08-17T05:54:28.573Z,10.18
2022-08-17T05:57:22.407Z,14.55
2022-08-17T06:00:08.285Z,10.50
2022-08-17T06:03:19.814Z,9.30
2022-08-17T06:06:14.530Z,12.95
2022-08-17T06:08:51.615Z,9.80
2022-08-17T06:11:27.476Z,8.93
2022-08-17T06:13:58.828Z,6.80
2022-08-17T06:16:36.634Z,11.98
2022-08-17T06:19:11.943Z,10.77
2022-08-17T06:21:42.415Z,14.13
2022-08-17T06:24:35.100Z,20.27
2022-08-17T06:27:08.122Z,15.30
2022-08-17T06:29:46.011Z,14.85
2022-08-17T06:32:13.460Z,14.45
2022-08-17T06:34:41.611Z,14.75
2022-08-17T06:37:26.564Z,15.85
2022-08-17T06:40:04.084Z,10.68
2022-08-17T06:42:54.959Z,17.15
2022-08-17T06:45:39.697Z,18.08
2022-08-17T06:48:16.772Z,13.40
2022-08-17T06:50:49.760Z,20.48
2022-08-17T06:53:25.264Z,13.70
2022-08-17T06:56:06.212Z,11.02
2022-08-17T06:58:33.584Z,14.88
2022-08-17T07:01:16.075Z,17.90
2022-08-17T07:03:49.725Z,12.77
2022-08-17T07:06:20.321Z,14.50
2022-08-17T07:09:06.980Z,20.55
2022-08-17T07:11:53.335Z,11.93
2022-08-17T07:14:37.018Z,14.93
2022-08-17T07:17:10.301Z,16.63
2022-08-17T07:19:41.081Z,13.55
2022-08-17T07:22:19.942Z,18.50
2022-08-17T07:24:48.143Z,17.70
2022-08-17T07:27:22.145Z,18.98
2022-08-17T07:30:05.634Z,16.33
2022-08-17T07:32:42.220Z,16.13
2022-08-17T07:35:37.534Z,18.63
2022-08-17T07:38:24.678Z,19.45
2022-08-17T07:41:05.941Z,16.23
2022-08-17T07:43:41.293Z,13.80
2022-08-17T07:46:43.622Z,20.70
2022-08-17T07:49:10.048Z,17.88
2022-08-17T07:51:39.428Z,19.75
2022-08-17T07:54:15.104Z,17.35
2022-08-17T07:56:48.822Z,18.70
2022-08-17T07:59:23.616Z,20.95
2022-08-17T08:01:57.712Z,18.70
2022-08-17T08:04:59.725Z,20.77
2022-08-17T08:07:50.303Z,22.30
2022-08-17T08:10:42.737Z,25.45
2022-08-17T08:13:21.988Z,20.92
2022-08-17T08:16:13.526Z,24.15
2022-08-17T08:21:33.210Z,30.13
2022-08-17T08:24:23.955Z,22.98
2022-08-17T08:27:27.137Z,24.88
2022-08-17T08:30:07.877Z,28.48
2022-08-17T08:32:44.198Z,30.83
2022-08-17T08:35:22.653Z,25.63
2022-08-17T08:37:52.143Z,30.00
2022-08-17T08:40:33.763Z,27.33
2022-08-17T08:43:27.181Z,26.10
2022-08-17T08:46:20.984Z,25.60
2022-08-17T08:49:45.263Z,32.03
2022-08-17T08:52:33.990Z,33.80
2022-08-17T08:55:48.835Z,31.45
2022-08-17T08:58:31.691Z,26.08
2022-08-17T09:01:25.028Z,27.80
2022-08-17T09:04:25.282Z,30.02
2022-08-17T09:07:07.217Z,33.67
2022-08-17T09:12:51.617Z,28.55
2022-08-17T09:15:40.590Z,30.38
2022-08-17T09:19:00.039Z,26.77
2022-08-17T09:21:25.037Z,27.63
2022-08-17T09:24:00.005Z,26.88
2022-08-17T09:26:35.358Z,26.77
2022-08-17T09:29:08.567Z,25.75
2022-08-17T09:31:48.191Z,27.48
2022-08-17T09:34:21.102Z,29.60
2022-08-17T09:36:59.246Z,31.20
2022-08-17T09:39:33.382Z,33.90
2022-08-17T09:42:08.185Z,33.08
2022-08-17T09:44:40.672Z,31.98
2022-08-17T09:47:45.363Z,33.92
2022-08-17T09:51:04.882Z,29.20
2022-08-17T09:53:10.848Z,33.53
2022-08-17T09:55:51.971Z,41.22
2022-08-17T09:58:44.380Z,27.30
2022-08-17T10:01:23.289Z,28.05
2022-08-17T10:04:22.127Z,36.95
2022-08-17T10:06:57.615Z,31.58
2022-08-17T10:09:39.354Z,24.52
2022-08-17T10:12:17.360Z,28.52
2022-08-17T10:14:55.039Z,30.15
2022-08-17T10:17:53.895Z,32.15
2022-08-17T10:20:30.149Z,32.75
2022-08-17T10:23:25.391Z,31.33
2022-08-17T10:26:12.969Z,32.40
2022-08-17T10:28:57.138Z,31.45
2022-08-17T10:31:34.666Z,33.55
2022-08-17T10:34:29.853Z,26.90
2022-08-17T10:37:37.201Z,32.22
2022-08-17T10:40:26.479Z,30.85
2022-08-17T10:43:21.282Z,32.58
2022-08-17T10:46:30.079Z,30.25
2022-08-17T10:49:13.364Z,29.27
2022-08-17T10:51:41.835Z,32.08
2022-08-17T10:54:36.441Z,33.72
2022-08-17T10:57:03.598Z,29.38
2022-08-17T10:59:35.935Z,33.63
2022-08-17T11:02:48.037Z,30.83
2022-08-17T11:05:19.979Z,31.40
2022-08-17T11:08:24.121Z,31.08
2022-08-17T11:11:35.879Z,32.50
2022-08-17T11:16:32.539Z,35.60
2022-08-17T11:18:59.013Z,33.58
2022-08-17T11:21:50.336Z,31.70
2022-08-17T11:24:43.454Z,30.95
2022-08-17T11:27:23.972Z,37.58
2022-08-17T11:30:05.779Z,32.88
2022-08-17T11:32:47.774Z,32.25
2022-08-17T11:35:30.150Z,37.10
2022-08-17T11:38:08.681Z,35.70
2022-08-17T11:41:02.367Z,37.22
2022-08-17T11:43:59.023Z,35.08
2022-08-17T11:46:55.653Z,36.33
2022-08-17T11:50:11.917Z,39.05
2022-08-17T11:52:46.793Z,36.55
2022-08-17T11:55:40.568Z,34.28
2022-08-17T11:58:34.082Z,36.15
2022-08-17T12:01:02.277Z,38.17
2022-08-17T12:03:34.490Z,36.53
2022-08-17T12:06:05.940Z,40.90
2022-08-17T12:08:34.073Z,39.33
2022-08-17T12:11:11.917Z,32.90
2022-08-17T12:13:47.897Z,35.80
2022-08-17T12:16:18.998Z,33.00
2022-08-17T12:21:59.302Z,35.13
2022-08-17T12:24:37.406Z,38.13
2022-08-17T12:27:06.294Z,36.70
2022-08-17T12:29:35.566Z,35.40
2022-08-17T12:32:06.942Z,31.92
2022-08-17T12:34:41.780Z,42.58
2022-08-17T12:37:21.325Z,38.97
2022-08-17T12:39:54.509Z,49.28
2022-08-17T12:42:31.004Z,40.53
2022-08-17T12:44:58.061Z,43.20
2022-08-17T12:47:25.025Z,38.88
2022-08-17T12:50:29.055Z,45.83
2022-08-17T12:53:02.021Z,43.00
2022-08-17T12:55:32.582Z,38.47
2022-08-17T12:58:02.088Z,35.00
2022-08-17T13:00:31.338Z,36.78
2022-08-17T13:03:07.713Z,38.33
2022-08-17T13:05:43.522Z,39.63
2022-08-17T13:08:19.890Z,45.25
2022-08-17T13:11:01.980Z,42.22
2022-08-17T13:13:33.977Z,39.20
2022-08-17T13:16:03.507Z,44.20
2022-08-17T13:18:38.963Z,48.22
2022-08-17T13:21:23.678Z,47.65
2022-08-17T13:24:02.256Z,48.63
2022-08-17T13:26:47.125Z,46.17
2022-08-17T13:29:25.943Z,49.20
2022-08-17T13:31:56.430Z,52.15
2022-08-17T13:34:42.378Z,52.45
2022-08-17T13:37:34.674Z,54.58
2022-08-17T13:40:07.456Z,57.28
2022-08-17T13:42:50.456Z,60.47
2022-08-17T13:45:36.733Z,54.60
2022-08-17T13:48:11.108Z,56.45
2022-08-17T13:50:56.769Z,55.42
2022-08-17T13:53:40.458Z,57.83
2022-08-17T13:56:37.446Z,56.78
2022-08-17T13:59:15.456Z,54.35
2022-08-17T14:01:53.598Z,53.63
2022-08-17T14:04:24.743Z,58.30
2022-08-17T14:07:28.201Z,57.20
2022-08-17T14:10:17.371Z,54.85
2022-08-17T14:12:45.225Z,51.97
2022-08-17T14:15:14.208Z,53.63
2022-08-17T14:17:40.883Z,55.00
2022-08-17T14:20:09.593Z,55.53
2022-08-17T14:22:39.230Z,52.10
2022-08-17T14:25:10.406Z,54.53
2022-08-17T14:27:51.770Z,57.83
2022-08-17T14:30:24.860Z,50.10
2022-08-17T14:32:52.241Z,48.75
2022-08-17T14:35:22.038Z,50.67
2022-08-17T14:37:49.869Z,51.65
2022-08-17T14:40:20.322Z,47.42
2022-08-17T14:42:47.083Z,51.33
2022-08-17T14:45:31.494Z,53.35
2022-08-17T14:48:01.227Z,55.38
2022-08-17T14:50:27.835Z,54.03
2022-08-17T14:52:56.556Z,49.92
2022-08-17T14:55:25.028Z,50.20
2022-08-17T14:57:51.763Z,52.97
2022-08-17T15:00:18.617Z,56.28
2022-08-17T15:02:53.693Z,50.65
2022-08-17T15:08:37.401Z,51.22
2022-08-17T15:11:04.434Z,49.72
2022-08-17T15:13:31.345Z,50.50
2022-08-17T15:15:59.962Z,54.58
2022-08-17T15:18:26.793Z,56.28
2022-08-17T15:20:53.530Z,52.58
2022-08-17T15:23:24.193Z,52.17
2022-08-17T15:25:52.547Z,54.25
2022-08-17T15:28:22.715Z,44.55
2022-08-17T15:30:50.744Z,43.17
2022-08-17T15:33:23.888Z,42.22
2022-08-17T15:35:53.297Z,50.83
2022-08-17T15:38:20.126Z,43.38
2022-08-17T15:40:48.377Z,41.03
2022-08-17T15:43:17.753Z,33.72
2022-08-17T15:46:12.147Z,32.88
2022-08-17T15:49:11.720Z,30.08
2022-08-17T15:51:38.375Z,24.00
2022-08-17T15:54:17.119Z,19.70
2022-08-17T15:56:49.325Z,19.05
2022-08-17T15:59:16.013Z,20.17
2022-08-17T16:02:20.012Z,23.00
2022-08-17T16:04:30.337Z,18.55
2022-08-17T16:06:59.039Z,16.67
2022-08-17T16:09:25.615Z,15.55
2022-08-17T16:11:55.312Z,22.58
2022-08-17T16:14:24.076Z,22.43
2022-08-17T16:16:51.020Z,21.38
2022-08-17T16:19:17.620Z,16.27
2022-08-17T16:21:44.155Z,15.32
2022-08-17T16:24:13.203Z,17.73
2022-08-17T16:26:40.683Z,13.63
2022-08-17T16:29:08.320Z,24.40
2022-08-17T16:31:36.063Z,17.45
2022-08-17T16:34:16.971Z,19.30
2022-08-17T16:36:55.066Z,15.15
2022-08-17T16:39:24.830Z,16.02
2022-08-17T16:41:51.420Z,17.20
2022-08-17T16:44:20.941Z,15.93
2022-08-17T16:46:48.347Z,22.02
2022-08-17T16:49:36.057Z,22.13
2022-08-17T16:52:03.702Z,22.65
2022-08-17T16:54:30.293Z,20.00
2022-08-17T16:56:56.878Z,22.88
2022-08-17T16:59:31.127Z,22.67
2022-08-17T17:02:10.989Z,21.83
2022-08-17T17:04:52.401Z,22.08
2022-08-17T17:07:33.940Z,20.63
2022-08-17T17:10:09.938Z,20.83
2022-08-17T17:13:02.616Z,20.98
2022-08-17T17:15:28.781Z,21.58
2022-08-17T17:18:06.144Z,21.55
2022-08-17T17:20:43.019Z,23.20
2022-08-17T17:23:17.404Z,23.63
2022-08-17T17:25:52.280Z,26.83
2022-08-17T17:28:57.283Z,24.45
2022-08-17T17:31:25.682Z,19.80
2022-08-17T17:33:55.857Z,22.55
2022-08-17T17:36:30.102Z,21.20
2022-08-17T17:39:11.012Z,22.45
2022-08-17T17:41:47.115Z,21.85
2022-08-17T17:44:18.048Z,21.05
2022-08-17T17:46:53.958Z,26.77
2022-08-17T17:49:20.604Z,19.50
2022-08-17T17:52:10.194Z,21.88
2022-08-17T17:54:53.951Z,25.98
2022-08-17T17:57:38.282Z,21.85
2022-08-17T18:00:13.871Z,19.85
2022-08-17T18:02:57.814Z,17.75
2022-08-17T18:05:27.421Z,16.42
2022-08-17T18:08:32.268Z,14.68
2022-08-17T18:11:13.643Z,14.68
2022-08-17T18:14:15.821Z,13.18
2022-08-17T18:16:46.477Z,12.77
2022-08-17T18:19:19.794Z,14.98
2022-08-17T18:21:52.331Z,14.15
2022-08-17T18:24:36.388Z,14.75
2022-08-17T18:27:23.299Z,12.98
2022-08-17T18:29:53.212Z,14.00
2022-08-17T18:32:31.140Z,14.05
2022-08-17T18:35:27.746Z,17.23
2022-08-17T18:38:19.856Z,15.75
2022-08-17T18:40:58.555Z,18.27
2022-08-17T18:43:44.393Z,18.88
2022-08-17T18:46:28.384Z,15.95
2022-08-17T18:49:00.186Z,16.48
2022-08-17T18:51:42.106Z,17.95
2022-08-17T18:54:15.470Z,17.63
2022-08-17T18:57:05.185Z,15.77
2022-08-17T18:59:45.055Z,17.92
2022-08-17T19:02:20.589Z,17.92
2022-08-17T19:05:04.700Z,17.92
2022-08-17T19:07:43.020Z,18.55
2022-08-17T19:10:23.449Z,19.73
2022-08-17T19:13:13.053Z,21.95
2022-08-17T19:16:11.812Z,21.50
2022-08-17T19:18:40.443Z,21.05
2022-08-17T19:21:25.741Z,22.63
2022-08-17T19:23:58.703Z,20.67
2022-08-17T19:26:53.450Z,23.23
2022-08-17T19:29:22.206Z,24.40
2022-08-17T19:31:49.504Z,24.90
2022-08-17T19:34:17.218Z,24.40
2022-08-17T19:37:08.801Z,27.90
2022-08-17T19:40:35.037Z,29.60
2022-08-17T19:43:35.645Z,30.58
2022-08-17T19:46:12.374Z,29.77
2022-08-17T19:48:57.594Z,31.63
2022-08-17T19:51:40.823Z,34.15
2022-08-17T19:54:20.408Z,30.55
2022-08-17T19:57:05.089Z,31.52
2022-08-17T19:59:50.685Z,30.00
2022-08-17T20:02:35.195Z,35.92
2022-08-17T20:05:06.522Z,33.55
2022-08-17T20:10:09.549Z,34.60
2022-08-17T20:12:38.901Z,31.40
2022-08-17T20:15:10.936Z,38.17
2022-08-17T20:17:40.804Z,32.95
2022-08-17T20:20:46.870Z,34.20
2022-08-17T20:23:25.329Z,39.22
2022-08-17T20:26:00.624Z,40.35
2022-08-17T20:28:35.069Z,36.25
2022-08-17T20:31:02.763Z,43.53
2022-08-17T20:33:33.000Z,39.95
2022-08-17T20:36:11.439Z,42.72
2022-08-17T20:38:42.836Z,41.63
2022-08-17T20:43:52.050Z,42.33
2022-08-17T20:46:26.728Z,42.45
2022-08-17T20:48:56.884Z,43.45
2022-08-17T20:51:31.446Z,43.72
2022-08-17T20:54:06.513Z,44.30
2022-08-17T20:56:44.909Z,45.90
2022-08-17T20:59:20.537Z,44.55
2022-08-17T21:02:06.653Z,47.20
2022-08-17T21:05:07.886Z,48.97
2022-08-17T21:07:43.721Z,52.20
2022-08-17T21:10:17.152Z,59.00
2022-08-17T21:12:54.213Z,57.55
2022-08-17T21:15:32.559Z,63.72
2022-08-17T21:18:06.499Z,60.30
2022-08-17T21:20:46.833Z,55.00
2022-08-17T21:23:31.083Z,59.65
2022-08-17T21:26:17.294Z,61.90
2022-08-17T21:29:00.530Z,62.17
2022-08-17T21:31:37.187Z,64.55
2022-08-17T21:34:15.716Z,67.65
2022-08-17T21:36:48.081Z,63.75
2022-08-17T21:39:17.578Z,70.05
2022-08-17T21:41:53.057Z,71.20
2022-08-17T21:44:21.562Z,70.47
2022-08-17T21:46:50.245Z,67.72
2022-08-17T21:49:20.142Z,75.05
2022-08-17T21:51:51.411Z,76.60
2022-08-17T21:57:00.008Z,72.78
2022-08-17T21:59:37.876Z,76.05
2022-08-17T22:02:06.073Z,77.47
2022-08-17T22:04:41.709Z,85.35
2022-08-17T22:07:12.343Z,83.13
2022-08-17T22:09:45.776Z,87.55
2022-08-17T22:12:17.756Z,90.38
2022-08-17T22:14:52.130Z,98.25
2022-08-17T22:17:35.745Z,100.00
2022-08-17T22:20:11.993Z,98.82
2022-08-17T22:23:20.140Z,94.68
2022-08-17T22:26:01.174Z,98.03
2022-08-17T22:28:47.450Z,99.25
2022-08-17T22:31:16.799Z,94.97
2022-08-17T22:33:46.758Z,98.65
2022-08-17T22:36:35.986Z,95.72
2022-08-17T22:39:08.305Z,104.63
2022-08-17T22:41:41.126Z,105.50
2022-08-17T22:44:31.694Z,113.60
2022-08-17T22:47:16.920Z,115.28
2022-08-17T22:49:53.820Z,108.20
2022-08-17T22:52:33.195Z,108.43
2022-08-17T22:55:26.882Z,112.80
2022-08-17T22:58:12.276Z,106.30
2022-08-17T23:00:47.420Z,113.75
2022-08-17T23:03:20.244Z,112.20
2022-08-17T23:06:03.323Z,115.25
2022-08-17T23:08:30.785Z,111.72
2022-08-17T23:10:59.698Z,111.78
2022-08-17T23:13:27.207Z,107.70
2022-08-17T23:15:53.954Z,111.72
2022-08-17T23:18:20.524Z,102.75
2022-08-17T23:20:47.090Z,113.53
2022-08-17T23:23:14.334Z,110.38
2022-08-17T23:25:44.441Z,100.10
2022-08-17T23:28:11.302Z,107.43
2022-08-17T23:30:41.651Z,114.40
2022-08-17T23:33:14.201Z,110.22
2022-08-17T23:35:41.198Z,108.55
2022-08-17T23:38:12.216Z,99.45
2022-08-17T23:40:40.028Z,113.32
2022-08-17T23:43:17.400Z,109.88
2022-08-17T23:45:53.738Z,107.25
2022-08-17T23:48:28.652Z,110.50
2022-08-17T23:51:24.322Z,105.20
2022-08-17T23:53:55.993Z,105.68
2022-08-17T23:56:26.060Z,102.30
2022-08-17T23:58:56.681Z,98.43
